sensor_id;sensor_type;location;lat;lon;timestamp;temperature;humidity
6462;DHT22;3264;42.862;25.098;2023-05-19T00:01:24;12.30;99.90
6462;DHT22;3264;42.862;25.098;2023-05-19T00:03:57;12.30;99.90
6462;DHT22;3264;42.862;25.098;2023-05-19T00:06:28;12.20;99.90
6462;DHT22;3264;42.862;25.098;2023-05-19T00:09:10;12.30;99.90
6462;DHT22;3264;42.862;25.098;2023-05-19T00:11:44;12.30;99.90
6462;DHT22;3264;42.862;25.098;2023-05-19T00:14:23;12.30;99.90
6462;DHT22;3264;42.862;25.098;2023-05-19T00:16:51;12.30;99.90
6462;DHT22;3264;42.862;25.098;2023-05-19T00:19:30;12.30;99.90
6462;DHT22;3264;42.862;25.098;2023-05-19T00:21:59;12.30;99.90
6462;DHT22;3264;42.862;25.098;2023-05-19T00:24:28;12.40;99.90
6462;DHT22;3264;42.862;25.098;2023-05-19T00:26:56;12.40;99.90
6462;DHT22;3264;42.862;25.098;2023-05-19T00:29:26;12.30;99.90
6462;DHT22;3264;42.862;25.098;2023-05-19T00:31:53;12.30;99.90
6462;DHT22;3264;42.862;25.098;2023-05-19T00:34:21;12.30;99.90
6462;DHT22;3264;42.862;25.098;2023-05-19T00:36:49;12.40;99.90
6462;DHT22;3264;42.862;25.098;2023-05-19T00:39:18;12.30;99.90
6462;DHT22;3264;42.862;25.098;2023-05-19T00:41:46;12.30;99.90
6462;DHT22;3264;42.862;25.098;2023-05-19T00:44:14;12.30;99.90
6462;DHT22;3264;42.862;25.098;2023-05-19T00:46:44;12.30;99.90
6462;DHT22;3264;42.862;25.098;2023-05-19T00:49:12;12.30;99.90
6462;DHT22;3264;42.862;25.098;2023-05-19T00:51:40;12.30;99.90
6462;DHT22;3264;42.862;25.098;2023-05-19T00:54:14;12.30;99.90
6462;DHT22;3264;42.862;25.098;2023-05-19T00:56:42;12.20;99.90
6462;DHT22;3264;42.862;25.098;2023-05-19T00:59:10;12.20;99.90
6462;DHT22;3264;42.862;25.098;2023-05-19T01:01:39;12.20;99.90
6462;DHT22;3264;42.862;25.098;2023-05-19T01:04:12;12.10;99.90
6462;DHT22;3264;42.862;25.098;2023-05-19T01:06:41;12.20;99.90
6462;DHT22;3264;42.862;25.098;2023-05-19T01:09:11;12.10;99.90
6462;DHT22;3264;42.862;25.098;2023-05-19T01:11:39;12.10;99.90
6462;DHT22;3264;42.862;25.098;2023-05-19T01:14:07;12.10;99.90
6462;DHT22;3264;42.862;25.098;2023-05-19T01:16:39;12.20;99.90
6462;DHT22;3264;42.862;25.098;2023-05-19T01:19:20;12.20;99.90
6462;DHT22;3264;42.862;25.098;2023-05-19T01:25:07;12.20;99.90
6462;DHT22;3264;42.862;25.098;2023-05-19T01:28:21;12.20;99.90
6462;DHT22;3264;42.862;25.098;2023-05-19T01:31:00;12.10;99.90
6462;DHT22;3264;42.862;25.098;2023-05-19T01:33:31;12.10;99.90
6462;DHT22;3264;42.862;25.098;2023-05-19T01:36:00;12.10;99.90
6462;DHT22;3264;42.862;25.098;2023-05-19T01:38:29;12.20;99.90
6462;DHT22;3264;42.862;25.098;2023-05-19T01:40:58;12.10;99.90
6462;DHT22;3264;42.862;25.098;2023-05-19T01:43:27;12.10;99.90
6462;DHT22;3264;42.862;25.098;2023-05-19T01:45:56;12.10;99.90
6462;DHT22;3264;42.862;25.098;2023-05-19T01:48:28;12.10;99.90
6462;DHT22;3264;42.862;25.098;2023-05-19T01:50:57;12.00;99.90
6462;DHT22;3264;42.862;25.098;2023-05-19T01:53:25;11.80;99.90
6462;DHT22;3264;42.862;25.098;2023-05-19T01:55:55;11.80;99.90
6462;DHT22;3264;42.862;25.098;2023-05-19T01:58:32;11.80;99.90
6462;DHT22;3264;42.862;25.098;2023-05-19T02:01:13;11.70;99.90
6462;DHT22;3264;42.862;25.098;2023-05-19T02:03:56;11.80;99.90
6462;DHT22;3264;42.862;25.098;2023-05-19T02:06:41;11.80;99.90
6462;DHT22;3264;42.862;25.098;2023-05-19T02:09:15;11.70;99.90
6462;DHT22;3264;42.862;25.098;2023-05-19T02:11:57;11.80;99.90
6462;DHT22;3264;42.862;25.098;2023-05-19T02:14:40;11.70;99.90
6462;DHT22;3264;42.862;25.098;2023-05-19T02:17:12;11.70;99.90
6462;DHT22;3264;42.862;25.098;2023-05-19T02:19:43;11.60;99.90
6462;DHT22;3264;42.862;25.098;2023-05-19T02:22:28;11.70;99.90
6462;DHT22;3264;42.862;25.098;2023-05-19T02:24:57;11.70;99.90
6462;DHT22;3264;42.862;25.098;2023-05-19T02:27:26;11.80;99.90
6462;DHT22;3264;42.862;25.098;2023-05-19T02:29:53;11.80;99.90
6462;DHT22;3264;42.862;25.098;2023-05-19T02:32:22;11.80;99.90
6462;DHT22;3264;42.862;25.098;2023-05-19T02:34:52;11.80;99.90
6462;DHT22;3264;42.862;25.098;2023-05-19T02:37:21;11.80;99.90
6462;DHT22;3264;42.862;25.098;2023-05-19T02:39:50;11.80;99.90
6462;DHT22;3264;42.862;25.098;2023-05-19T02:42:19;11.70;99.90
6462;DHT22;3264;42.862;25.098;2023-05-19T02:44:48;11.70;99.90
6462;DHT22;3264;42.862;25.098;2023-05-19T02:47:17;11.60;99.90
6462;DHT22;3264;42.862;25.098;2023-05-19T02:49:45;11.60;99.90
6462;DHT22;3264;42.862;25.098;2023-05-19T02:52:15;11.70;99.90
6462;DHT22;3264;42.862;25.098;2023-05-19T02:54:44;11.80;99.90
6462;DHT22;3264;42.862;25.098;2023-05-19T02:57:12;11.90;99.90
6462;DHT22;3264;42.862;25.098;2023-05-19T02:59:41;11.90;99.90
6462;DHT22;3264;42.862;25.098;2023-05-19T03:02:09;11.90;99.90
6462;DHT22;3264;42.862;25.098;2023-05-19T03:04:38;11.90;99.90
6462;DHT22;3264;42.862;25.098;2023-05-19T03:07:08;12.00;99.90
6462;DHT22;3264;42.862;25.098;2023-05-19T03:09:39;11.90;99.90
6462;DHT22;3264;42.862;25.098;2023-05-19T03:12:07;11.90;99.90
6462;DHT22;3264;42.862;25.098;2023-05-19T03:14:36;11.90;99.90
6462;DHT22;3264;42.862;25.098;2023-05-19T03:17:04;11.90;99.90
6462;DHT22;3264;42.862;25.098;2023-05-19T03:19:35;12.00;99.90
6462;DHT22;3264;42.862;25.098;2023-05-19T03:22:03;12.00;99.90
6462;DHT22;3264;42.862;25.098;2023-05-19T03:24:31;12.00;99.90
6462;DHT22;3264;42.862;25.098;2023-05-19T03:27:00;12.10;99.90
6462;DHT22;3264;42.862;25.098;2023-05-19T03:29:31;12.10;99.90
6462;DHT22;3264;42.862;25.098;2023-05-19T03:31:58;12.20;99.90
6462;DHT22;3264;42.862;25.098;2023-05-19T03:34:26;12.10;99.90
6462;DHT22;3264;42.862;25.098;2023-05-19T03:36:54;12.10;99.90
6462;DHT22;3264;42.862;25.098;2023-05-19T03:39:22;12.10;99.90
6462;DHT22;3264;42.862;25.098;2023-05-19T03:41:49;12.10;99.90
6462;DHT22;3264;42.862;25.098;2023-05-19T03:44:19;12.00;99.90
6462;DHT22;3264;42.862;25.098;2023-05-19T03:46:47;12.20;99.90
6462;DHT22;3264;42.862;25.098;2023-05-19T03:49:16;12.10;99.90
6462;DHT22;3264;42.862;25.098;2023-05-19T03:51:43;12.30;99.90
6462;DHT22;3264;42.862;25.098;2023-05-19T03:54:11;12.30;99.90
6462;DHT22;3264;42.862;25.098;2023-05-19T03:56:41;12.30;99.90
6462;DHT22;3264;42.862;25.098;2023-05-19T03:59:10;12.40;99.90
6462;DHT22;3264;42.862;25.098;2023-05-19T04:01:40;12.40;99.90
6462;DHT22;3264;42.862;25.098;2023-05-19T04:04:08;12.30;99.90
6462;DHT22;3264;42.862;25.098;2023-05-19T04:06:36;12.40;99.90
6462;DHT22;3264;42.862;25.098;2023-05-19T04:09:10;12.40;99.90
6462;DHT22;3264;42.862;25.098;2023-05-19T04:11:40;12.50;99.90
6462;DHT22;3264;42.862;25.098;2023-05-19T04:14:08;12.70;99.90
6462;DHT22;3264;42.862;25.098;2023-05-19T04:16:36;12.80;99.90
6462;DHT22;3264;42.862;25.098;2023-05-19T04:19:05;12.90;99.90
6462;DHT22;3264;42.862;25.098;2023-05-19T04:21:33;12.80;99.90
6462;DHT22;3264;42.862;25.098;2023-05-19T04:24:01;12.70;99.90
6462;DHT22;3264;42.862;25.098;2023-05-19T04:26:32;12.70;99.90
6462;DHT22;3264;42.862;25.098;2023-05-19T04:28:59;12.90;99.90
6462;DHT22;3264;42.862;25.098;2023-05-19T04:31:29;12.80;99.90
6462;DHT22;3264;42.862;25.098;2023-05-19T04:33:59;12.80;99.90
6462;DHT22;3264;42.862;25.098;2023-05-19T04:36:30;12.90;99.90
6462;DHT22;3264;42.862;25.098;2023-05-19T04:38:59;12.90;99.90
6462;DHT22;3264;42.862;25.098;2023-05-19T04:41:41;13.00;99.90
6462;DHT22;3264;42.862;25.098;2023-05-19T04:44:10;12.90;99.90
6462;DHT22;3264;42.862;25.098;2023-05-19T04:46:39;13.00;99.90
6462;DHT22;3264;42.862;25.098;2023-05-19T04:49:07;13.10;99.90
6462;DHT22;3264;42.862;25.098;2023-05-19T04:51:39;13.30;99.90
6462;DHT22;3264;42.862;25.098;2023-05-19T04:54:08;13.40;99.90
6462;DHT22;3264;42.862;25.098;2023-05-19T04:56:36;13.30;99.90
6462;DHT22;3264;42.862;25.098;2023-05-19T04:59:04;13.50;99.90
6462;DHT22;3264;42.862;25.098;2023-05-19T05:01:33;13.60;99.90
6462;DHT22;3264;42.862;25.098;2023-05-19T05:04:05;13.70;99.90
6462;DHT22;3264;42.862;25.098;2023-05-19T05:06:33;13.90;99.90
6462;DHT22;3264;42.862;25.098;2023-05-19T05:09:05;14.20;99.90
6462;DHT22;3264;42.862;25.098;2023-05-19T05:11:34;14.20;99.90
6462;DHT22;3264;42.862;25.098;2023-05-19T05:14:02;14.10;99.90
6462;DHT22;3264;42.862;25.098;2023-05-19T05:16:32;14.20;99.90
6462;DHT22;3264;42.862;25.098;2023-05-19T05:21:54;14.60;99.90
6462;DHT22;3264;42.862;25.098;2023-05-19T05:24:24;14.30;99.90
6462;DHT22;3264;42.862;25.098;2023-05-19T05:26:52;14.30;99.90
6462;DHT22;3264;42.862;25.098;2023-05-19T05:29:21;14.30;99.90
6462;DHT22;3264;42.862;25.098;2023-05-19T05:31:49;14.50;99.90
6462;DHT22;3264;42.862;25.098;2023-05-19T05:34:17;14.50;99.90
6462;DHT22;3264;42.862;25.098;2023-05-19T05:36:45;14.50;99.90
6462;DHT22;3264;42.862;25.098;2023-05-19T05:39:14;14.70;99.90
6462;DHT22;3264;42.862;25.098;2023-05-19T05:41:43;14.90;99.90
6462;DHT22;3264;42.862;25.098;2023-05-19T05:44:11;15.30;99.90
6462;DHT22;3264;42.862;25.098;2023-05-19T05:46:40;15.40;99.90
6462;DHT22;3264;42.862;25.098;2023-05-19T05:49:12;15.60;99.90
6462;DHT22;3264;42.862;25.098;2023-05-19T05:51:41;15.80;99.90
6462;DHT22;3264;42.862;25.098;2023-05-19T05:54:11;16.10;99.90
6462;DHT22;3264;42.862;25.098;2023-05-19T05:56:42;16.30;99.90
6462;DHT22;3264;42.862;25.098;2023-05-19T05:59:11;16.40;99.90
6462;DHT22;3264;42.862;25.098;2023-05-19T06:01:40;16.10;99.90
6462;DHT22;3264;42.862;25.098;2023-05-19T06:04:09;16.00;99.90
6462;DHT22;3264;42.862;25.098;2023-05-19T06:06:38;16.30;99.90
6462;DHT22;3264;42.862;25.098;2023-05-19T06:09:07;16.70;99.90
6462;DHT22;3264;42.862;25.098;2023-05-19T06:11:34;16.60;99.90
6462;DHT22;3264;42.862;25.098;2023-05-19T06:14:03;16.80;99.90
6462;DHT22;3264;42.862;25.098;2023-05-19T06:16:31;16.50;99.90
6462;DHT22;3264;42.862;25.098;2023-05-19T06:18:59;16.30;99.90
6462;DHT22;3264;42.862;25.098;2023-05-19T06:21:28;16.80;99.90
6462;DHT22;3264;42.862;25.098;2023-05-19T06:23:56;17.10;99.90
6462;DHT22;3264;42.862;25.098;2023-05-19T06:26:26;17.40;99.90
6462;DHT22;3264;42.862;25.098;2023-05-19T06:28:54;17.10;99.90
6462;DHT22;3264;42.862;25.098;2023-05-19T06:31:23;16.90;99.90
6462;DHT22;3264;42.862;25.098;2023-05-19T06:33:52;17.10;99.90
6462;DHT22;3264;42.862;25.098;2023-05-19T06:36:20;17.30;99.90
6462;DHT22;3264;42.862;25.098;2023-05-19T06:38:47;17.60;99.90
6462;DHT22;3264;42.862;25.098;2023-05-19T06:41:15;18.20;99.90
6462;DHT22;3264;42.862;25.098;2023-05-19T06:43:44;18.00;99.90
6462;DHT22;3264;42.862;25.098;2023-05-19T06:46:11;17.80;99.90
6462;DHT22;3264;42.862;25.098;2023-05-19T06:48:41;18.10;99.90
6462;DHT22;3264;42.862;25.098;2023-05-19T06:51:09;18.40;99.90
6462;DHT22;3264;42.862;25.098;2023-05-19T06:53:38;18.40;99.90
6462;DHT22;3264;42.862;25.098;2023-05-19T06:56:06;18.60;99.90
6462;DHT22;3264;42.862;25.098;2023-05-19T06:58:34;18.70;99.90
6462;DHT22;3264;42.862;25.098;2023-05-19T07:01:02;19.00;99.90
6462;DHT22;3264;42.862;25.098;2023-05-19T07:03:30;19.00;99.90
6462;DHT22;3264;42.862;25.098;2023-05-19T07:05:59;19.20;99.90
6462;DHT22;3264;42.862;25.098;2023-05-19T07:08:27;19.70;99.90
6462;DHT22;3264;42.862;25.098;2023-05-19T07:10:55;19.50;99.90
6462;DHT22;3264;42.862;25.098;2023-05-19T07:13:22;18.50;99.90
6462;DHT22;3264;42.862;25.098;2023-05-19T07:15:50;18.60;99.90
6462;DHT22;3264;42.862;25.098;2023-05-19T07:18:20;18.60;99.90
6462;DHT22;3264;42.862;25.098;2023-05-19T07:20:48;19.60;99.90
6462;DHT22;3264;42.862;25.098;2023-05-19T07:23:17;19.80;99.90
6462;DHT22;3264;42.862;25.098;2023-05-19T07:25:46;20.00;99.90
6462;DHT22;3264;42.862;25.098;2023-05-19T07:28:15;20.20;99.90
6462;DHT22;3264;42.862;25.098;2023-05-19T07:30:43;20.50;99.90
6462;DHT22;3264;42.862;25.098;2023-05-19T07:33:10;20.20;99.90
6462;DHT22;3264;42.862;25.098;2023-05-19T07:35:39;20.60;99.90
6462;DHT22;3264;42.862;25.098;2023-05-19T07:38:07;20.80;99.90
6462;DHT22;3264;42.862;25.098;2023-05-19T07:40:37;20.70;96.20
6462;DHT22;3264;42.862;25.098;2023-05-19T07:43:05;19.90;98.50
6462;DHT22;3264;42.862;25.098;2023-05-19T07:45:32;19.80;98.00
6462;DHT22;3264;42.862;25.098;2023-05-19T07:48:01;20.20;99.90
6462;DHT22;3264;42.862;25.098;2023-05-19T07:50:29;20.20;97.30
6462;DHT22;3264;42.862;25.098;2023-05-19T07:52:57;20.10;99.90
6462;DHT22;3264;42.862;25.098;2023-05-19T07:55:28;21.10;98.90
6462;DHT22;3264;42.862;25.098;2023-05-19T07:57:58;20.60;99.90
6462;DHT22;3264;42.862;25.098;2023-05-19T08:00:26;21.50;99.90
6462;DHT22;3264;42.862;25.098;2023-05-19T08:02:54;21.20;97.60
6462;DHT22;3264;42.862;25.098;2023-05-19T08:05:22;20.80;96.30
6462;DHT22;3264;42.862;25.098;2023-05-19T08:07:51;20.80;99.90
6462;DHT22;3264;42.862;25.098;2023-05-19T08:10:20;20.20;95.70
6462;DHT22;3264;42.862;25.098;2023-05-19T08:12:49;20.10;95.00
6462;DHT22;3264;42.862;25.098;2023-05-19T08:15:19;20.60;95.40
6462;DHT22;3264;42.862;25.098;2023-05-19T08:17:47;20.80;95.10
6462;DHT22;3264;42.862;25.098;2023-05-19T08:20:16;21.30;96.90
6462;DHT22;3264;42.862;25.098;2023-05-19T08:22:45;21.20;95.50
6462;DHT22;3264;42.862;25.098;2023-05-19T08:25:14;21.40;95.20
6462;DHT22;3264;42.862;25.098;2023-05-19T08:27:43;21.10;97.30
6462;DHT22;3264;42.862;25.098;2023-05-19T08:30:11;20.70;96.50
6462;DHT22;3264;42.862;25.098;2023-05-19T08:32:41;20.90;95.60
6462;DHT22;3264;42.862;25.098;2023-05-19T08:35:09;20.90;93.50
6462;DHT22;3264;42.862;25.098;2023-05-19T08:37:37;21.60;93.80
6462;DHT22;3264;42.862;25.098;2023-05-19T08:40:07;22.30;96.90
6462;DHT22;3264;42.862;25.098;2023-05-19T08:42:37;22.70;95.30
6462;DHT22;3264;42.862;25.098;2023-05-19T08:45:06;23.10;94.20
6462;DHT22;3264;42.862;25.098;2023-05-19T08:47:34;22.80;92.50
6462;DHT22;3264;42.862;25.098;2023-05-19T08:50:06;22.40;95.10
6462;DHT22;3264;42.862;25.098;2023-05-19T08:52:42;23.00;97.40
6462;DHT22;3264;42.862;25.098;2023-05-19T08:55:21;22.90;95.50
6462;DHT22;3264;42.862;25.098;2023-05-19T08:57:52;23.10;93.90
6462;DHT22;3264;42.862;25.098;2023-05-19T09:00:21;22.10;96.90
6462;DHT22;3264;42.862;25.098;2023-05-19T09:02:49;21.80;93.10
6462;DHT22;3264;42.862;25.098;2023-05-19T09:05:19;22.30;94.60
6462;DHT22;3264;42.862;25.098;2023-05-19T09:07:48;22.80;98.50
6462;DHT22;3264;42.862;25.098;2023-05-19T09:10:16;22.30;93.90
6462;DHT22;3264;42.862;25.098;2023-05-19T09:12:47;22.30;92.80
6462;DHT22;3264;42.862;25.098;2023-05-19T09:15:17;22.80;93.50
6462;DHT22;3264;42.862;25.098;2023-05-19T09:17:46;22.60;98.50
6462;DHT22;3264;42.862;25.098;2023-05-19T09:20:15;23.20;92.10
6462;DHT22;3264;42.862;25.098;2023-05-19T09:22:46;23.70;92.50
6462;DHT22;3264;42.862;25.098;2023-05-19T09:25:18;24.00;90.20
6462;DHT22;3264;42.862;25.098;2023-05-19T09:27:46;24.40;87.60
6462;DHT22;3264;42.862;25.098;2023-05-19T09:30:16;23.40;89.80
6462;DHT22;3264;42.862;25.098;2023-05-19T09:32:45;23.20;89.60
6462;DHT22;3264;42.862;25.098;2023-05-19T09:35:14;22.90;91.30
6462;DHT22;3264;42.862;25.098;2023-05-19T09:37:47;21.70;91.20
6462;DHT22;3264;42.862;25.098;2023-05-19T09:40:18;21.50;94.40
6462;DHT22;3264;42.862;25.098;2023-05-19T09:42:47;20.90;91.60
6462;DHT22;3264;42.862;25.098;2023-05-19T09:45:15;21.20;93.70
6462;DHT22;3264;42.862;25.098;2023-05-19T09:47:43;21.70;92.50
6462;DHT22;3264;42.862;25.098;2023-05-19T09:50:11;22.10;90.60
6462;DHT22;3264;42.862;25.098;2023-05-19T09:52:42;22.30;90.00
6462;DHT22;3264;42.862;25.098;2023-05-19T09:55:12;21.60;90.00
6462;DHT22;3264;42.862;25.098;2023-05-19T09:57:41;22.20;92.00
6462;DHT22;3264;42.862;25.098;2023-05-19T10:00:11;21.60;92.10
6462;DHT22;3264;42.862;25.098;2023-05-19T10:02:44;22.40;93.70
6462;DHT22;3264;42.862;25.098;2023-05-19T10:05:13;22.60;93.00
6462;DHT22;3264;42.862;25.098;2023-05-19T10:07:43;22.80;90.40
6462;DHT22;3264;42.862;25.098;2023-05-19T10:10:15;22.70;88.70
6462;DHT22;3264;42.862;25.098;2023-05-19T10:12:43;22.50;87.90
6462;DHT22;3264;42.862;25.098;2023-05-19T10:15:13;21.50;89.60
6462;DHT22;3264;42.862;25.098;2023-05-19T10:17:42;21.70;92.40
6462;DHT22;3264;42.862;25.098;2023-05-19T10:20:11;22.60;91.80
6462;DHT22;3264;42.862;25.098;2023-05-19T10:22:40;23.20;85.50
6462;DHT22;3264;42.862;25.098;2023-05-19T10:25:09;22.20;88.70
6462;DHT22;3264;42.862;25.098;2023-05-19T10:27:42;22.90;95.60
6462;DHT22;3264;42.862;25.098;2023-05-19T10:30:13;22.50;88.70
6462;DHT22;3264;42.862;25.098;2023-05-19T10:32:43;22.20;92.00
6462;DHT22;3264;42.862;25.098;2023-05-19T10:35:35;21.70;90.60
6462;DHT22;3264;42.862;25.098;2023-05-19T10:38:15;22.10;94.20
6462;DHT22;3264;42.862;25.098;2023-05-19T10:40:54;23.20;90.70
6462;DHT22;3264;42.862;25.098;2023-05-19T10:43:48;23.60;84.60
6462;DHT22;3264;42.862;25.098;2023-05-19T10:46:23;23.40;82.20
6462;DHT22;3264;42.862;25.098;2023-05-19T10:48:53;24.30;88.40
6462;DHT22;3264;42.862;25.098;2023-05-19T10:51:29;22.90;88.90
6462;DHT22;3264;42.862;25.098;2023-05-19T10:54:00;22.10;87.60
6462;DHT22;3264;42.862;25.098;2023-05-19T10:56:32;22.00;92.50
6462;DHT22;3264;42.862;25.098;2023-05-19T10:59:03;23.10;84.70
6462;DHT22;3264;42.862;25.098;2023-05-19T11:01:32;23.40;87.70
6462;DHT22;3264;42.862;25.098;2023-05-19T11:04:04;22.60;85.10
6462;DHT22;3264;42.862;25.098;2023-05-19T11:06:33;23.20;96.40
6462;DHT22;3264;42.862;25.098;2023-05-19T11:09:12;22.90;87.90
6462;DHT22;3264;42.862;25.098;2023-05-19T11:11:45;23.70;84.10
6462;DHT22;3264;42.862;25.098;2023-05-19T11:14:17;24.30;86.60
6462;DHT22;3264;42.862;25.098;2023-05-19T11:16:46;24.50;83.70
6462;DHT22;3264;42.862;25.098;2023-05-19T11:19:19;23.70;83.00
6462;DHT22;3264;42.862;25.098;2023-05-19T11:21:52;22.90;85.40
6462;DHT22;3264;42.862;25.098;2023-05-19T11:24:37;21.60;82.10
6462;DHT22;3264;42.862;25.098;2023-05-19T11:27:24;21.60;83.70
6462;DHT22;3264;42.862;25.098;2023-05-19T11:29:55;22.70;92.70
6462;DHT22;3264;42.862;25.098;2023-05-19T11:32:27;22.90;83.70
6462;DHT22;3264;42.862;25.098;2023-05-19T11:34:57;22.80;87.10
6462;DHT22;3264;42.862;25.098;2023-05-19T11:37:25;23.70;95.40
6462;DHT22;3264;42.862;25.098;2023-05-19T11:39:55;24.10;90.80
6462;DHT22;3264;42.862;25.098;2023-05-19T11:42:23;22.90;76.90
6462;DHT22;3264;42.862;25.098;2023-05-19T11:44:55;22.60;88.30
6462;DHT22;3264;42.862;25.098;2023-05-19T11:47:24;22.00;92.80
6462;DHT22;3264;42.862;25.098;2023-05-19T11:49:53;21.80;90.80
6462;DHT22;3264;42.862;25.098;2023-05-19T11:52:22;21.60;90.90
6462;DHT22;3264;42.862;25.098;2023-05-19T11:54:50;22.20;92.60
6462;DHT22;3264;42.862;25.098;2023-05-19T11:57:21;23.10;87.20
6462;DHT22;3264;42.862;25.098;2023-05-19T11:59:49;23.10;86.60
6462;DHT22;3264;42.862;25.098;2023-05-19T12:02:22;23.80;85.70
6462;DHT22;3264;42.862;25.098;2023-05-19T12:04:52;24.60;90.10
6462;DHT22;3264;42.862;25.098;2023-05-19T12:07:22;24.00;89.50
6462;DHT22;3264;42.862;25.098;2023-05-19T12:09:51;24.50;88.90
6462;DHT22;3264;42.862;25.098;2023-05-19T12:12:20;23.60;85.10
6462;DHT22;3264;42.862;25.098;2023-05-19T12:14:50;22.30;84.80
6462;DHT22;3264;42.862;25.098;2023-05-19T12:17:21;23.00;91.90
6462;DHT22;3264;42.862;25.098;2023-05-19T12:19:49;23.80;90.00
6462;DHT22;3264;42.862;25.098;2023-05-19T12:22:17;24.20;79.60
6462;DHT22;3264;42.862;25.098;2023-05-19T12:24:47;24.90;87.70
6462;DHT22;3264;42.862;25.098;2023-05-19T12:27:22;24.20;75.70
6462;DHT22;3264;42.862;25.098;2023-05-19T12:29:52;24.10;77.30
6462;DHT22;3264;42.862;25.098;2023-05-19T12:32:24;23.40;84.10
6462;DHT22;3264;42.862;25.098;2023-05-19T12:34:54;22.70;86.90
6462;DHT22;3264;42.862;25.098;2023-05-19T12:37:25;22.60;91.80
6462;DHT22;3264;42.862;25.098;2023-05-19T12:39:55;22.60;89.60
6462;DHT22;3264;42.862;25.098;2023-05-19T12:42:26;22.80;93.40
6462;DHT22;3264;42.862;25.098;2023-05-19T12:44:58;22.80;75.70
6462;DHT22;3264;42.862;25.098;2023-05-19T12:47:31;23.40;81.30
6462;DHT22;3264;42.862;25.098;2023-05-19T12:50:01;24.20;78.50
6462;DHT22;3264;42.862;25.098;2023-05-19T12:52:33;23.60;80.90
6462;DHT22;3264;42.862;25.098;2023-05-19T12:55:03;22.90;77.40
6462;DHT22;3264;42.862;25.098;2023-05-19T12:57:34;22.60;86.00
6462;DHT22;3264;42.862;25.098;2023-05-19T13:00:04;22.70;87.80
6462;DHT22;3264;42.862;25.098;2023-05-19T13:02:56;22.60;90.00
6462;DHT22;3264;42.862;25.098;2023-05-19T13:05:25;22.40;86.10
6462;DHT22;3264;42.862;25.098;2023-05-19T13:07:57;22.10;90.40
6462;DHT22;3264;42.862;25.098;2023-05-19T13:10:25;22.20;90.40
6462;DHT22;3264;42.862;25.098;2023-05-19T13:12:54;22.40;93.30
6462;DHT22;3264;42.862;25.098;2023-05-19T13:15:23;22.30;85.70
6462;DHT22;3264;42.862;25.098;2023-05-19T13:17:51;22.90;86.90
6462;DHT22;3264;42.862;25.098;2023-05-19T13:20:21;23.60;74.90
6462;DHT22;3264;42.862;25.098;2023-05-19T13:22:49;23.30;76.40
6462;DHT22;3264;42.862;25.098;2023-05-19T13:25:17;22.80;70.10
6462;DHT22;3264;42.862;25.098;2023-05-19T13:27:47;23.30;76.70
6462;DHT22;3264;42.862;25.098;2023-05-19T13:30:17;23.10;76.10
6462;DHT22;3264;42.862;25.098;2023-05-19T13:32:47;22.30;77.00
6462;DHT22;3264;42.862;25.098;2023-05-19T13:35:17;21.90;83.30
6462;DHT22;3264;42.862;25.098;2023-05-19T13:37:47;21.80;80.50
6462;DHT22;3264;42.862;25.098;2023-05-19T13:40:16;21.60;82.00
6462;DHT22;3264;42.862;25.098;2023-05-19T13:42:44;21.80;81.90
6462;DHT22;3264;42.862;25.098;2023-05-19T13:45:12;21.90;91.30
6462;DHT22;3264;42.862;25.098;2023-05-19T13:47:40;21.90;83.40
6462;DHT22;3264;42.862;25.098;2023-05-19T13:50:08;22.70;88.90
6462;DHT22;3264;42.862;25.098;2023-05-19T13:52:37;22.70;90.20
6462;DHT22;3264;42.862;25.098;2023-05-19T13:55:08;22.50;81.10
6462;DHT22;3264;42.862;25.098;2023-05-19T13:57:37;22.90;79.70
6462;DHT22;3264;42.862;25.098;2023-05-19T14:00:07;22.10;83.90
6462;DHT22;3264;42.862;25.098;2023-05-19T14:02:35;21.60;86.20
6462;DHT22;3264;42.862;25.098;2023-05-19T14:05:07;21.80;91.90
6462;DHT22;3264;42.862;25.098;2023-05-19T14:07:36;21.70;91.50
6462;DHT22;3264;42.862;25.098;2023-05-19T14:10:07;21.70;92.40
6462;DHT22;3264;42.862;25.098;2023-05-19T14:12:35;21.70;95.20
6462;DHT22;3264;42.862;25.098;2023-05-19T14:15:04;21.60;94.60
6462;DHT22;3264;42.862;25.098;2023-05-19T14:17:33;21.60;95.50
6462;DHT22;3264;42.862;25.098;2023-05-19T14:20:01;21.70;95.30
6462;DHT22;3264;42.862;25.098;2023-05-19T14:22:31;21.40;95.60
6462;DHT22;3264;42.862;25.098;2023-05-19T14:24:59;20.70;99.90
6462;DHT22;3264;42.862;25.098;2023-05-19T14:27:28;20.60;97.90
6462;DHT22;3264;42.862;25.098;2023-05-19T14:29:55;19.90;93.30
6462;DHT22;3264;42.862;25.098;2023-05-19T14:32:23;19.00;93.10
6462;DHT22;3264;42.862;25.098;2023-05-19T14:34:51;18.50;96.10
6462;DHT22;3264;42.862;25.098;2023-05-19T14:37:20;18.40;97.30
6462;DHT22;3264;42.862;25.098;2023-05-19T14:39:47;18.00;99.90
6462;DHT22;3264;42.862;25.098;2023-05-19T14:42:15;17.60;97.40
6462;DHT22;3264;42.862;25.098;2023-05-19T14:44:44;16.80;99.90
6462;DHT22;3264;42.862;25.098;2023-05-19T14:47:13;16.90;99.90
6462;DHT22;3264;42.862;25.098;2023-05-19T14:49:41;16.50;99.90
6462;DHT22;3264;42.862;25.098;2023-05-19T14:52:10;16.50;99.90
6462;DHT22;3264;42.862;25.098;2023-05-19T14:54:38;16.00;99.90
6462;DHT22;3264;42.862;25.098;2023-05-19T14:57:05;15.70;99.90
6462;DHT22;3264;42.862;25.098;2023-05-19T14:59:36;15.40;99.90
6462;DHT22;3264;42.862;25.098;2023-05-19T15:02:08;15.30;99.90
6462;DHT22;3264;42.862;25.098;2023-05-19T15:04:36;15.30;99.90
6462;DHT22;3264;42.862;25.098;2023-05-19T15:07:05;15.20;99.90
6462;DHT22;3264;42.862;25.098;2023-05-19T15:09:33;15.10;99.90
6462;DHT22;3264;42.862;25.098;2023-05-19T15:12:03;15.20;99.90
6462;DHT22;3264;42.862;25.098;2023-05-19T15:14:32;15.20;99.90
6462;DHT22;3264;42.862;25.098;2023-05-19T15:16:59;15.20;99.90
6462;DHT22;3264;42.862;25.098;2023-05-19T15:19:29;15.20;99.90
6462;DHT22;3264;42.862;25.098;2023-05-19T15:21:57;15.40;99.90
6462;DHT22;3264;42.862;25.098;2023-05-19T15:24:26;15.40;99.90
6462;DHT22;3264;42.862;25.098;2023-05-19T15:26:54;15.10;99.90
6462;DHT22;3264;42.862;25.098;2023-05-19T15:29:23;15.00;99.90
6462;DHT22;3264;42.862;25.098;2023-05-19T15:31:52;15.00;99.90
6462;DHT22;3264;42.862;25.098;2023-05-19T15:34:22;15.10;99.90
6462;DHT22;3264;42.862;25.098;2023-05-19T15:36:53;15.10;99.90
6462;DHT22;3264;42.862;25.098;2023-05-19T15:39:21;15.20;99.90
6462;DHT22;3264;42.862;25.098;2023-05-19T15:41:49;15.40;99.90
6462;DHT22;3264;42.862;25.098;2023-05-19T15:44:21;15.10;99.90
6462;DHT22;3264;42.862;25.098;2023-05-19T15:46:49;15.20;99.90
6462;DHT22;3264;42.862;25.098;2023-05-19T15:49:17;15.20;99.90
6462;DHT22;3264;42.862;25.098;2023-05-19T15:51:45;15.10;99.90
6462;DHT22;3264;42.862;25.098;2023-05-19T15:54:15;15.00;99.90
6462;DHT22;3264;42.862;25.098;2023-05-19T15:56:42;14.60;99.90
6462;DHT22;3264;42.862;25.098;2023-05-19T15:59:10;14.50;99.90
6462;DHT22;3264;42.862;25.098;2023-05-19T16:01:39;14.40;99.90
6462;DHT22;3264;42.862;25.098;2023-05-19T16:04:08;14.40;99.90
6462;DHT22;3264;42.862;25.098;2023-05-19T16:06:37;14.50;99.90
6462;DHT22;3264;42.862;25.098;2023-05-19T16:09:05;14.50;99.90